Time;durP1;ratioP1;P1;durP2;ratioP2;P2;SDS_P1;SDS_P2;PMS_P1;PMS_P2;Temp;Humidity;BMP_temperature;BMP_pressure;BME280_temperature;BME280_humidity;BME280_pressure;Samples;Min_cycle;Max_cycle;Signal;HPM_P1;HPM_P2
2023/03/18 00:02:10;;;;;;;;;;;18.60;44.10;;;;;;5098370;28;19942;-70
2023/03/18 00:04:36;;;;;;;;;;;18.60;44.10;;;;;;5097991;28;19931;-70
2023/03/18 00:07:01;;;;;;;;;;;18.70;44.20;;;;;;5098058;28;19931;-69
2023/03/18 00:09:27;;;;;;;;;;;18.60;44.10;;;;;;5132459;27;19920;-71
2023/03/18 00:11:55;;;;;;;;;;;18.60;44.90;;;;;;5097906;28;20328;-70
2023/03/18 00:14:21;;;;;;;;;;;18.60;44.20;;;;;;5132168;27;19920;-71
2023/03/18 00:16:47;;;;;;;;;;;18.60;44.20;;;;;;5097769;28;19926;-71
2023/03/18 00:19:13;;;;;;;;;;;18.60;44.10;;;;;;5115976;28;19946;-71
2023/03/18 00:21:38;;;;;;;;;;;18.60;44.20;;;;;;5116189;28;19920;-69
2023/03/18 00:24:04;;;;;;;;;;;18.60;44.20;;;;;;5131872;27;19920;-70
2023/03/18 00:26:29;;;;;;;;;;;18.60;44.20;;;;;;5115830;28;19924;-70
2023/03/18 00:28:56;;;;;;;;;;;18.60;44.20;;;;;;5115949;28;19923;-69
2023/03/18 00:31:21;;;;;;;;;;;18.60;44.30;;;;;;5115723;28;19943;-70
2023/03/18 00:33:49;;;;;;;;;;;18.50;44.20;;;;;;5131868;27;20355;-69
2023/03/18 00:36:15;;;;;;;;;;;18.60;44.30;;;;;;5097308;28;19920;-70
2023/03/18 00:38:42;;;;;;;;;;;18.60;44.30;;;;;;5097525;28;19927;-70
2023/03/18 00:41:11;;;;;;;;;;;18.60;44.30;;;;;;5097573;28;20251;-70
2023/03/18 00:43:44;;;;;;;;;;;18.60;44.30;;;;;;5115650;28;20303;-70
2023/03/18 00:46:12;;;;;;;;;;;18.60;44.30;;;;;;5097396;28;20038;-69
2023/03/18 00:48:38;;;;;;;;;;;18.60;44.30;;;;;;5096981;28;20256;-70
2023/03/18 00:51:04;;;;;;;;;;;18.50;44.30;;;;;;5097251;28;19927;-69
2023/03/18 00:53:29;;;;;;;;;;;18.60;44.30;;;;;;5115676;28;20370;-70
2023/03/18 00:55:55;;;;;;;;;;;18.50;44.30;;;;;;5097472;28;20019;-69
2023/03/18 00:58:21;;;;;;;;;;;18.50;44.30;;;;;;5114759;28;19942;-69
2023/03/18 01:00:46;;;;;;;;;;;18.50;44.30;;;;;;5097349;28;19920;-70
2023/03/18 01:03:15;;;;;;;;;;;18.50;44.40;;;;;;5096835;28;20390;-70
2023/03/18 01:05:40;;;;;;;;;;;18.50;44.40;;;;;;5096896;28;19974;-70
2023/03/18 01:08:06;;;;;;;;;;;18.50;44.40;;;;;;5096803;28;19975;-70
2023/03/18 01:10:31;;;;;;;;;;;18.50;44.30;;;;;;5096891;28;19919;-70
2023/03/18 01:13:00;;;;;;;;;;;18.50;44.30;;;;;;5097163;28;19919;-69
2023/03/18 01:15:25;;;;;;;;;;;18.50;44.40;;;;;;5097145;28;20401;-70
2023/03/18 01:17:55;;;;;;;;;;;18.50;44.30;;;;;;5114828;28;19963;-71
2023/03/18 01:20:20;;;;;;;;;;;18.50;44.40;;;;;;5114946;28;20359;-71
2023/03/18 01:22:46;;;;;;;;;;;18.50;44.40;;;;;;5114968;28;19938;-70
2023/03/18 01:25:14;;;;;;;;;;;18.50;44.40;;;;;;5096495;28;19920;-71
2023/03/18 01:27:40;;;;;;;;;;;18.50;44.40;;;;;;5096306;28;19959;-69
2023/03/18 01:30:06;;;;;;;;;;;18.50;44.40;;;;;;5096805;28;19963;-70
2023/03/18 01:32:31;;;;;;;;;;;18.40;44.40;;;;;;5096786;28;20386;-69
2023/03/18 01:34:58;;;;;;;;;;;18.40;44.40;;;;;;5096429;28;19965;-70
2023/03/18 01:37:24;;;;;;;;;;;18.40;44.40;;;;;;5096443;28;19920;-70
2023/03/18 01:39:50;;;;;;;;;;;18.50;44.40;;;;;;5096596;28;19943;-69
2023/03/18 01:42:17;;;;;;;;;;;18.40;44.40;;;;;;5114797;28;20374;-70
2023/03/18 01:44:45;;;;;;;;;;;18.40;44.40;;;;;;5096419;28;19920;-70
2023/03/18 01:47:10;;;;;;;;;;;18.40;44.40;;;;;;5096164;28;19961;-70
2023/03/18 01:49:39;;;;;;;;;;;18.40;44.50;;;;;;5095922;28;20061;-70
2023/03/18 01:52:08;;;;;;;;;;;18.40;44.40;;;;;;5114475;28;19923;-71
2023/03/18 01:54:36;;;;;;;;;;;18.40;44.40;;;;;;5096244;28;19928;-69
2023/03/18 01:57:02;;;;;;;;;;;18.40;44.40;;;;;;5114608;28;19919;-71
2023/03/18 01:59:30;;;;;;;;;;;18.40;44.50;;;;;;5096152;28;19968;-69
2023/03/18 02:04:45;;;;;;;;;;;18.40;44.50;;;;;;5130700;27;20006;-69
2023/03/18 02:07:15;;;;;;;;;;;18.40;44.50;;;;;;5129535;28;19926;-70
2023/03/18 02:09:41;;;;;;;;;;;18.40;44.50;;;;;;5129182;28;20378;-70
2023/03/18 02:12:07;;;;;;;;;;;18.30;44.40;;;;;;5129363;28;20023;-70
2023/03/18 02:14:33;;;;;;;;;;;18.40;44.50;;;;;;5129154;28;19926;-70
2023/03/18 02:19:59;;;;;;;;;;;18.40;44.50;;;;;;5110188;27;19912;-70
2023/03/18 02:22:34;;;;;;;;;;;18.30;44.40;;;;;;5108602;28;20371;-71
2023/03/18 02:27:56;;;;;;;;;;;18.30;44.50;;;;;;5130716;27;20014;-70
2023/03/18 02:30:23;;;;;;;;;;;18.30;44.50;;;;;;5129338;28;19927;-72
2023/03/18 02:32:50;;;;;;;;;;;18.30;44.50;;;;;;5130738;27;20263;-70
2023/03/18 02:35:16;;;;;;;;;;;18.30;44.50;;;;;;5129170;28;20390;-71
2023/03/18 02:37:41;;;;;;;;;;;18.30;44.50;;;;;;5129451;27;20022;-70
2023/03/18 02:40:11;;;;;;;;;;;18.30;44.60;;;;;;5129172;28;20379;-70
2023/03/18 02:42:40;;;;;;;;;;;18.30;44.50;;;;;;5129512;28;19920;-70
2023/03/18 02:45:08;;;;;;;;;;;18.30;44.60;;;;;;5129341;27;19920;-70
2023/03/18 02:47:34;;;;;;;;;;;18.20;44.50;;;;;;5128971;28;20006;-70
2023/03/18 02:49:59;;;;;;;;;;;18.30;44.60;;;;;;5130254;27;19955;-70
2023/03/18 02:52:25;;;;;;;;;;;18.30;44.60;;;;;;5129131;28;20383;-71
2023/03/18 02:54:51;;;;;;;;;;;18.20;44.60;;;;;;5129303;28;20386;-69
2023/03/18 02:57:16;;;;;;;;;;;18.20;44.60;;;;;;5128872;28;19955;-71
2023/03/18 02:59:41;;;;;;;;;;;18.20;44.60;;;;;;5129085;28;19943;-71
2023/03/18 03:02:07;;;;;;;;;;;18.20;44.60;;;;;;5129044;28;20213;-71
2023/03/18 03:04:32;;;;;;;;;;;18.20;44.60;;;;;;5130051;27;20327;-70
2023/03/18 03:07:00;;;;;;;;;;;18.20;45.00;;;;;;5128624;28;20390;-70
2023/03/18 03:09:25;;;;;;;;;;;18.20;44.70;;;;;;5128577;28;20397;-70
2023/03/18 03:11:51;;;;;;;;;;;18.20;44.70;;;;;;5129879;27;19920;-70
2023/03/18 03:14:16;;;;;;;;;;;18.20;44.60;;;;;;5128775;28;19972;-70
2023/03/18 03:16:42;;;;;;;;;;;18.20;44.70;;;;;;5128748;28;19924;-71
2023/03/18 03:19:08;;;;;;;;;;;18.20;44.70;;;;;;5128508;28;20263;-70
2023/03/18 03:21:34;;;;;;;;;;;18.20;44.70;;;;;;5128673;28;19925;-70
2023/03/18 03:24:01;;;;;;;;;;;18.10;44.70;;;;;;5128293;28;19927;-70
2023/03/18 03:26:27;;;;;;;;;;;18.20;44.70;;;;;;5128024;28;19923;-70
2023/03/18 03:28:52;;;;;;;;;;;18.10;44.70;;;;;;5128272;28;19927;-70
2023/03/18 03:31:18;;;;;;;;;;;18.10;44.70;;;;;;5129593;27;19929;-70
2023/03/18 03:33:44;;;;;;;;;;;18.10;44.80;;;;;;5129435;27;19919;-70
2023/03/18 03:36:11;;;;;;;;;;;18.10;44.70;;;;;;5145071;27;19919;-70
2023/03/18 03:38:37;;;;;;;;;;;18.10;44.80;;;;;;5137492;27;19920;-70
2023/03/18 03:41:04;;;;;;;;;;;18.10;44.80;;;;;;5136380;27;19942;-70
2023/03/18 03:43:30;;;;;;;;;;;18.10;44.80;;;;;;5135132;27;19927;-70
2023/03/18 03:45:55;;;;;;;;;;;18.10;44.80;;;;;;5134660;27;19927;-71
2023/03/18 03:48:21;;;;;;;;;;;18.10;44.80;;;;;;5133088;27;20290;-70
2023/03/18 03:50:48;;;;;;;;;;;18.10;44.80;;;;;;5097570;28;19919;-70
2023/03/18 03:53:14;;;;;;;;;;;18.10;44.90;;;;;;5115335;28;19920;-70
2023/03/18 03:55:40;;;;;;;;;;;18.10;44.90;;;;;;5115564;27;19926;-70
2023/03/18 03:58:06;;;;;;;;;;;18.10;44.80;;;;;;5114270;28;19970;-70
2023/03/18 04:00:32;;;;;;;;;;;18.00;44.80;;;;;;5097377;28;19923;-70
2023/03/18 04:02:58;;;;;;;;;;;18.10;44.90;;;;;;5113847;28;20328;-70
2023/03/18 04:05:24;;;;;;;;;;;18.10;44.90;;;;;;5114125;28;19926;-70
2023/03/18 04:07:50;;;;;;;;;;;18.10;44.90;;;;;;5113823;28;20431;-69
2023/03/18 04:10:16;;;;;;;;;;;18.00;44.90;;;;;;5114135;28;19919;-70
2023/03/18 04:12:44;;;;;;;;;;;18.00;44.90;;;;;;5113878;28;19920;-70
2023/03/18 04:15:10;;;;;;;;;;;18.00;44.90;;;;;;5114112;28;19920;-70
2023/03/18 04:17:36;;;;;;;;;;;18.00;45.00;;;;;;5113469;28;20321;-70
2023/03/18 04:20:03;;;;;;;;;;;18.00;44.90;;;;;;5114856;28;19920;-70
2023/03/18 04:22:29;;;;;;;;;;;18.00;45.00;;;;;;5114986;28;19919;-70
2023/03/18 04:24:55;;;;;;;;;;;18.00;45.00;;;;;;5114667;28;19924;-70
2023/03/18 04:27:21;;;;;;;;;;;18.00;45.70;;;;;;5113166;28;19930;-69
2023/03/18 04:29:47;;;;;;;;;;;18.00;45.00;;;;;;5113665;28;19920;-69
2023/03/18 04:32:13;;;;;;;;;;;17.90;45.00;;;;;;5113341;28;19920;-70
2023/03/18 04:34:38;;;;;;;;;;;18.00;45.00;;;;;;5113530;28;19920;-71
2023/03/18 04:37:04;;;;;;;;;;;18.00;45.00;;;;;;5114892;28;19974;-70
2023/03/18 04:39:29;;;;;;;;;;;18.00;45.10;;;;;;5114387;28;20374;-71
2023/03/18 04:41:55;;;;;;;;;;;18.00;45.00;;;;;;5113194;28;19972;-69
2023/03/18 04:44:22;;;;;;;;;;;18.00;45.10;;;;;;5113362;28;20229;-69
2023/03/18 04:46:47;;;;;;;;;;;18.00;45.10;;;;;;5113130;28;19970;-70
2023/03/18 04:49:13;;;;;;;;;;;17.90;45.00;;;;;;5112271;28;19955;-70
2023/03/18 04:51:38;;;;;;;;;;;17.90;45.10;;;;;;5113051;28;20325;-71
2023/03/18 04:54:07;;;;;;;;;;;17.90;45.10;;;;;;5112997;28;19973;-69
2023/03/18 04:56:33;;;;;;;;;;;17.90;45.10;;;;;;5113213;28;20530;-70
2023/03/18 04:58:58;;;;;;;;;;;17.90;45.10;;;;;;5112933;28;19928;-70
2023/03/18 05:01:24;;;;;;;;;;;17.90;45.10;;;;;;5114063;28;19920;-70
2023/03/18 05:03:50;;;;;;;;;;;17.90;45.10;;;;;;5112728;28;19927;-69
2023/03/18 05:06:20;;;;;;;;;;;17.90;45.90;;;;;;5112653;28;19924;-69
2023/03/18 05:08:46;;;;;;;;;;;17.90;45.10;;;;;;5112976;28;19968;-70
2023/03/18 05:11:11;;;;;;;;;;;17.90;45.20;;;;;;5112617;28;20006;-70
2023/03/18 05:13:37;;;;;;;;;;;17.90;45.10;;;;;;5112699;28;19926;-70
2023/03/18 05:16:03;;;;;;;;;;;17.90;45.20;;;;;;5113741;28;19966;-70
2023/03/18 05:18:29;;;;;;;;;;;17.90;45.10;;;;;;5112898;28;19919;-70
2023/03/18 05:20:54;;;;;;;;;;;17.90;45.20;;;;;;5113722;28;19923;-71
2023/03/18 05:23:20;;;;;;;;;;;17.90;45.20;;;;;;5112437;28;20020;-70
2023/03/18 05:25:47;;;;;;;;;;;17.90;45.20;;;;;;5112158;28;19931;-70
2023/03/18 05:28:12;;;;;;;;;;;17.90;45.20;;;;;;5113601;28;19920;-70
2023/03/18 05:30:39;;;;;;;;;;;17.90;45.20;;;;;;5112251;28;19927;-70
2023/03/18 05:33:04;;;;;;;;;;;17.80;45.20;;;;;;5112536;28;19919;-70
2023/03/18 05:35:30;;;;;;;;;;;17.80;45.20;;;;;;5112226;28;20295;-71
2023/03/18 05:37:59;;;;;;;;;;;17.80;45.20;;;;;;5113381;28;20272;-70
2023/03/18 05:40:25;;;;;;;;;;;17.80;45.20;;;;;;5112358;28;19972;-70
2023/03/18 05:42:51;;;;;;;;;;;17.80;45.20;;;;;;5113464;28;20392;-69
2023/03/18 05:45:16;;;;;;;;;;;17.80;45.20;;;;;;5111991;28;19920;-71
2023/03/18 05:47:43;;;;;;;;;;;17.80;45.20;;;;;;5111898;28;19931;-69
2023/03/18 05:50:09;;;;;;;;;;;17.80;45.30;;;;;;5113256;28;20104;-70
2023/03/18 05:52:35;;;;;;;;;;;17.80;45.30;;;;;;5111864;28;19930;-70
2023/03/18 05:55:01;;;;;;;;;;;17.80;45.30;;;;;;5113347;28;20010;-71
2023/03/18 05:57:27;;;;;;;;;;;17.80;45.30;;;;;;5113673;28;19923;-70
2023/03/18 05:59:52;;;;;;;;;;;17.80;46.00;;;;;;5112141;28;19920;-70
2023/03/18 06:02:18;;;;;;;;;;;17.80;45.30;;;;;;5111436;28;20352;-70
2023/03/18 06:04:44;;;;;;;;;;;17.80;45.30;;;;;;5112029;28;19926;-70
2023/03/18 06:07:11;;;;;;;;;;;17.80;45.40;;;;;;5112971;28;19924;-70
2023/03/18 06:09:36;;;;;;;;;;;17.80;45.30;;;;;;5112959;28;19920;-71
2023/03/18 06:12:02;;;;;;;;;;;17.80;45.40;;;;;;5111532;28;19966;-71
2023/03/18 06:14:28;;;;;;;;;;;17.70;45.30;;;;;;5111765;28;19920;-69
2023/03/18 06:16:54;;;;;;;;;;;17.80;45.40;;;;;;5111607;28;19972;-69
2023/03/18 06:19:20;;;;;;;;;;;17.70;45.30;;;;;;5113033;28;20291;-70
2023/03/18 06:21:46;;;;;;;;;;;17.70;45.30;;;;;;5112930;28;19920;-70
2023/03/18 06:24:13;;;;;;;;;;;17.70;45.30;;;;;;5111441;28;19920;-70
2023/03/18 06:26:39;;;;;;;;;;;17.80;45.40;;;;;;5111269;28;20356;-70
2023/03/18 06:29:05;;;;;;;;;;;17.70;45.30;;;;;;5111641;28;19927;-70
2023/03/18 06:31:31;;;;;;;;;;;17.70;45.40;;;;;;5111644;28;19919;-70
2023/03/18 06:33:57;;;;;;;;;;;17.70;45.30;;;;;;5111371;28;20019;-70
2023/03/18 06:36:23;;;;;;;;;;;17.70;45.40;;;;;;5111478;28;19920;-70
2023/03/18 06:38:49;;;;;;;;;;;17.70;45.40;;;;;;5112661;28;19927;-70
2023/03/18 06:41:15;;;;;;;;;;;17.70;45.40;;;;;;5111679;28;19931;-70
2023/03/18 06:43:41;;;;;;;;;;;17.70;45.40;;;;;;5111323;28;19919;-70
2023/03/18 06:46:06;;;;;;;;;;;17.70;45.40;;;;;;5111469;28;19924;-70
2023/03/18 06:48:33;;;;;;;;;;;17.70;45.40;;;;;;5112475;28;19920;-70
2023/03/18 06:50:59;;;;;;;;;;;17.70;45.40;;;;;;5111539;28;20010;-70
2023/03/18 06:53:26;;;;;;;;;;;17.60;45.40;;;;;;5111202;28;20483;-69
2023/03/18 06:55:52;;;;;;;;;;;17.70;45.40;;;;;;5094377;28;19923;-70
2023/03/18 06:58:18;;;;;;;;;;;17.70;45.50;;;;;;5111388;28;19926;-69
2023/03/18 07:00:47;;;;;;;;;;;17.70;45.50;;;;;;5111043;28;20346;-70
2023/03/18 07:03:14;;;;;;;;;;;17.70;45.50;;;;;;5111507;28;20006;-70
2023/03/18 07:05:41;;;;;;;;;;;17.70;45.50;;;;;;5111258;28;19920;-70
2023/03/18 07:08:07;;;;;;;;;;;17.60;45.50;;;;;;5111228;28;20427;-71
2023/03/18 07:10:32;;;;;;;;;;;17.70;45.50;;;;;;5111014;28;19920;-70
2023/03/18 07:12:59;;;;;;;;;;;17.70;45.50;;;;;;5112209;28;20049;-70
2023/03/18 07:15:25;;;;;;;;;;;17.70;45.60;;;;;;5115120;28;19924;-69
2023/03/18 07:17:51;;;;;;;;;;;17.60;45.50;;;;;;5115273;28;19927;-71
2023/03/18 07:20:21;;;;;;;;;;;17.60;45.50;;;;;;5126416;27;19919;-70
2023/03/18 07:22:46;;;;;;;;;;;17.50;45.50;;;;;;5135611;27;20292;-71
2023/03/18 07:25:15;;;;;;;;;;;17.60;45.50;;;;;;5136579;27;19919;-71
2023/03/18 07:27:41;;;;;;;;;;;17.50;46.20;;;;;;5134981;27;20010;-71
2023/03/18 07:30:08;;;;;;;;;;;17.60;45.60;;;;;;5135711;27;20369;-71
2023/03/18 07:32:35;;;;;;;;;;;17.60;45.60;;;;;;5135738;27;19928;-71
2023/03/18 07:35:03;;;;;;;;;;;17.60;45.60;;;;;;5135746;27;19923;-71
2023/03/18 07:37:29;;;;;;;;;;;17.60;45.60;;;;;;5135397;27;19966;-71
2023/03/18 07:39:55;;;;;;;;;;;17.60;45.70;;;;;;5134851;27;20402;-70
2023/03/18 07:42:20;;;;;;;;;;;17.60;45.70;;;;;;5134932;27;20286;-70
2023/03/18 07:44:46;;;;;;;;;;;17.60;45.70;;;;;;5135287;27;19919;-70
2023/03/18 07:47:14;;;;;;;;;;;17.60;45.80;;;;;;5135150;27;20366;-71
2023/03/18 07:49:40;;;;;;;;;;;17.60;45.80;;;;;;5122482;27;20337;-72
2023/03/18 07:52:06;;;;;;;;;;;17.60;45.80;;;;;;5114410;28;19920;-71
2023/03/18 07:54:32;;;;;;;;;;;17.60;45.90;;;;;;5114461;28;19943;-71
2023/03/18 07:56:57;;;;;;;;;;;17.60;45.80;;;;;;5115426;28;19919;-71
2023/03/18 07:59:23;;;;;;;;;;;17.60;45.80;;;;;;5115416;28;19920;-71
2023/03/18 08:01:49;;;;;;;;;;;17.50;45.80;;;;;;5114551;28;19920;-71
2023/03/18 08:04:15;;;;;;;;;;;17.60;45.90;;;;;;5114080;28;20279;-72
2023/03/18 08:06:41;;;;;;;;;;;17.60;45.80;;;;;;5115388;28;20371;-72
2023/03/18 08:09:07;;;;;;;;;;;17.60;45.90;;;;;;5113926;28;19927;-71
2023/03/18 08:11:33;;;;;;;;;;;17.50;45.80;;;;;;5114087;28;20321;-71
2023/03/18 08:13:59;;;;;;;;;;;17.50;45.90;;;;;;5115386;28;19972;-71
2023/03/18 08:16:25;;;;;;;;;;;17.60;45.90;;;;;;5114989;28;19930;-71
2023/03/18 08:18:51;;;;;;;;;;;17.50;45.90;;;;;;5114067;28;19920;-71
2023/03/18 08:21:17;;;;;;;;;;;17.60;46.00;;;;;;5113530;28;19919;-71
2023/03/18 08:23:43;;;;;;;;;;;17.50;46.00;;;;;;5113872;28;19968;-69
2023/03/18 08:26:09;;;;;;;;;;;17.50;46.00;;;;;;5113741;28;19923;-71
2023/03/18 08:28:35;;;;;;;;;;;17.50;46.10;;;;;;5113355;28;19958;-71
2023/03/18 08:31:02;;;;;;;;;;;17.50;46.00;;;;;;5113629;28;19963;-71
2023/03/18 08:33:27;;;;;;;;;;;17.60;46.10;;;;;;5113496;28;19967;-72
2023/03/18 08:35:54;;;;;;;;;;;17.50;46.10;;;;;;5113430;28;19967;-71
2023/03/18 08:38:24;;;;;;;;;;;17.50;46.10;;;;;;5113528;28;19920;-70
2023/03/18 08:40:50;;;;;;;;;;;17.50;46.20;;;;;;5115241;28;20014;-70
2023/03/18 08:43:15;;;;;;;;;;;17.50;46.20;;;;;;5113463;28;20023;-71
2023/03/18 08:45:41;;;;;;;;;;;17.50;46.30;;;;;;5113408;28;19940;-71
2023/03/18 08:48:07;;;;;;;;;;;17.50;46.20;;;;;;5113343;28;19993;-71
2023/03/18 08:50:34;;;;;;;;;;;17.50;46.30;;;;;;5113213;28;19971;-71
2023/03/18 08:53:00;;;;;;;;;;;17.50;46.40;;;;;;5114304;28;20022;-70
2023/03/18 08:55:28;;;;;;;;;;;17.50;46.30;;;;;;5113299;28;20319;-71
2023/03/18 08:57:53;;;;;;;;;;;17.50;46.40;;;;;;5114149;28;20511;-71
2023/03/18 09:00:20;;;;;;;;;;;17.50;46.30;;;;;;5113326;28;20194;-70
2023/03/18 09:02:46;;;;;;;;;;;17.50;46.40;;;;;;5114378;28;19931;-71
2023/03/18 09:05:12;;;;;;;;;;;17.50;46.40;;;;;;5114229;28;19963;-71
2023/03/18 09:07:37;;;;;;;;;;;17.50;46.40;;;;;;5112699;28;19974;-71
2023/03/18 09:10:03;;;;;;;;;;;17.50;46.50;;;;;;5113044;28;20420;-71
2023/03/18 09:12:28;;;;;;;;;;;17.50;46.50;;;;;;5112659;28;19920;-70
2023/03/18 09:14:54;;;;;;;;;;;17.50;46.50;;;;;;5112584;28;19963;-71
2023/03/18 09:17:22;;;;;;;;;;;17.50;46.50;;;;;;5112889;28;19967;-70
2023/03/18 09:19:48;;;;;;;;;;;17.50;46.60;;;;;;5112492;28;20470;-70
2023/03/18 09:22:13;;;;;;;;;;;17.50;46.50;;;;;;5112773;28;19966;-70
2023/03/18 09:24:39;;;;;;;;;;;17.50;46.60;;;;;;5112881;28;19920;-70
2023/03/18 09:27:05;;;;;;;;;;;17.50;46.60;;;;;;5112798;28;19934;-70
2023/03/18 09:29:30;;;;;;;;;;;17.50;46.60;;;;;;5112380;28;19920;-71
2023/03/18 09:31:56;;;;;;;;;;;17.50;46.60;;;;;;5112284;28;19971;-69
2023/03/18 09:34:22;;;;;;;;;;;17.50;47.40;;;;;;5112191;28;19920;-70
2023/03/18 09:36:49;;;;;;;;;;;17.50;46.70;;;;;;5113062;28;19965;-72
2023/03/18 09:39:16;;;;;;;;;;;17.50;46.70;;;;;;5112465;28;20411;-70
2023/03/18 09:41:50;;;;;;;;;;;17.50;46.70;;;;;;5112213;28;19945;-71
2023/03/18 09:44:20;;;;;;;;;;;17.50;46.80;;;;;;5111980;28;20394;-70
2023/03/18 09:47:05;;;;;;;;;;;17.50;46.80;;;;;;5112151;28;19991;-70
2023/03/18 09:49:37;;;;;;;;;;;17.50;46.80;;;;;;5112924;28;19926;-72
2023/03/18 09:57:27;;;;;;;;;;;17.50;46.90;;;;;;5108352;27;20281;-72
2023/03/18 10:00:13;;;;;;;;;;;17.50;46.90;;;;;;5108822;28;20339;-70
2023/03/18 10:02:41;;;;;;;;;;;17.50;46.90;;;;;;5108953;28;19924;-71
2023/03/18 10:05:11;;;;;;;;;;;17.50;47.00;;;;;;5108963;28;19920;-70
2023/03/18 10:07:39;;;;;;;;;;;17.50;46.90;;;;;;5109124;28;19961;-70
2023/03/18 10:10:06;;;;;;;;;;;17.50;47.00;;;;;;5108573;28;19965;-70
2023/03/18 10:12:34;;;;;;;;;;;17.50;46.90;;;;;;5108695;28;19959;-70
2023/03/18 10:17:45;;;;;;;;;;;17.50;47.80;;;;;;5089813;28;20293;-70
2023/03/18 10:20:31;;;;;;;;;;;17.50;47.10;;;;;;5090254;28;20265;-70
2023/03/18 10:23:01;;;;;;;;;;;17.50;47.10;;;;;;5088486;28;19920;-70
2023/03/18 10:28:18;;;;;;;;;;;17.50;47.30;;;;;;5110228;27;19912;-70
2023/03/18 10:31:03;;;;;;;;;;;17.50;47.30;;;;;;5109201;28;20283;-70
2023/03/18 10:33:35;;;;;;;;;;;17.50;47.40;;;;;;5108959;28;19965;-70
2023/03/18 10:38:50;;;;;;;;;;;17.50;47.30;;;;;;5110045;27;19916;-70
2023/03/18 10:44:06;;;;;;;;;;;17.50;47.40;;;;;;5193226;27;19911;-71
2023/03/18 10:46:32;;;;;;;;;;;17.50;47.40;;;;;;5174372;27;19919;-70
2023/03/18 10:49:05;;;;;;;;;;;17.50;47.30;;;;;;5174591;27;20404;-69
2023/03/18 10:51:37;;;;;;;;;;;17.50;47.50;;;;;;5174365;27;19919;-69
2023/03/18 10:54:09;;;;;;;;;;;17.50;47.40;;;;;;5174371;27;19922;-70
2023/03/18 10:56:35;;;;;;;;;;;17.50;47.60;;;;;;5174508;27;19926;-70
2023/03/18 10:59:04;;;;;;;;;;;17.50;47.40;;;;;;5174325;27;19918;-70
2023/03/18 11:01:30;;;;;;;;;;;17.50;47.40;;;;;;5174402;27;20380;-70
2023/03/18 11:04:00;;;;;;;;;;;17.40;48.10;;;;;;5174107;27;20436;-70
2023/03/18 11:06:44;;;;;;;;;;;17.50;47.40;;;;;;5192978;27;20168;-70
2023/03/18 11:09:11;;;;;;;;;;;17.50;47.40;;;;;;5192823;27;19929;-70
2023/03/18 11:11:42;;;;;;;;;;;17.50;47.40;;;;;;5174529;27;19926;-70
2023/03/18 11:14:12;;;;;;;;;;;17.50;47.40;;;;;;5174067;27;19966;-70
2023/03/18 11:16:38;;;;;;;;;;;17.50;47.40;;;;;;5173887;27;20365;-70
2023/03/18 11:19:06;;;;;;;;;;;17.50;47.40;;;;;;5192791;27;20348;-70
2023/03/18 11:21:33;;;;;;;;;;;17.50;47.50;;;;;;5192809;27;20026;-70
2023/03/18 11:24:23;;;;;;;;;;;17.50;47.50;;;;;;5192945;27;20005;-70
2023/03/18 11:26:46;;;;;;;;;;;17.50;47.50;;;;;;5173787;27;19970;-70
2023/03/18 11:29:16;;;;;;;;;;;17.50;47.50;;;;;;5174092;27;19919;-71
2023/03/18 11:31:50;;;;;;;;;;;17.50;47.50;;;;;;5172580;27;19919;-76
2023/03/18 11:34:18;;;;;;;;;;;17.50;47.50;;;;;;5149665;27;20005;-74
2023/03/18 11:36:51;;;;;;;;;;;17.50;48.20;;;;;;5169922;27;20302;-70
2023/03/18 11:39:18;;;;;;;;;;;17.50;48.60;;;;;;5156938;27;19963;-72
2023/03/18 11:41:43;;;;;;;;;;;17.60;49.10;;;;;;5168914;27;19918;-77
2023/03/18 11:44:17;;;;;;;;;;;17.60;49.40;;;;;;5162824;27;19963;-74
2023/03/18 11:46:49;;;;;;;;;;;17.70;49.50;;;;;;5155193;27;19926;-73
2023/03/18 11:49:16;;;;;;;;;;;17.70;49.40;;;;;;5160775;27;19958;-72
2023/03/18 11:51:47;;;;;;;;;;;17.70;49.10;;;;;;5170658;27;20416;-71
2023/03/18 11:54:20;;;;;;;;;;;17.70;49.60;;;;;;5162850;27;20013;-72
2023/03/18 11:56:47;;;;;;;;;;;17.90;49.80;;;;;;5157024;27;20002;-73
2023/03/18 12:07:54;;;;;;;;;;;18.50;48.80;;;;;;5089725;28;19919;-71
2023/03/18 12:10:23;;;;;;;;;;;18.70;48.60;;;;;;5087907;28;20348;-72
2023/03/18 12:13:03;;;;;;;;;;;18.80;48.30;;;;;;5086392;28;19920;-69
2023/03/18 12:15:53;;;;;;;;;;;19.00;47.90;;;;;;5087481;28;19925;-73
2023/03/18 12:21:06;;;;;;;;;;;19.50;47.40;;;;;;5109633;27;19922;-69
2023/03/18 12:23:46;;;;;;;;;;;19.60;47.10;;;;;;5102018;28;19924;-69
2023/03/18 12:26:16;;;;;;;;;;;19.70;47.00;;;;;;5099076;28;20020;-73
2023/03/18 12:28:47;;;;;;;;;;;19.80;46.90;;;;;;5089702;28;19920;-71
2023/03/18 12:31:23;;;;;;;;;;;19.90;46.70;;;;;;5100497;28;19920;-70
2023/03/18 12:39:20;;;;;;;;;;;20.00;46.50;;;;;;5089341;28;20051;-75
2023/03/18 12:47:14;;;;;;;;;;;20.10;46.30;;;;;;5117322;27;19938;-70
2023/03/18 12:49:44;;;;;;;;;;;20.10;46.30;;;;;;5103734;28;19919;-69
2023/03/18 12:52:23;;;;;;;;;;;20.10;46.30;;;;;;5108247;28;19993;-71
2023/03/18 12:54:56;;;;;;;;;;;20.10;46.30;;;;;;5108800;28;19926;-71
2023/03/18 12:57:30;;;;;;;;;;;20.10;46.50;;;;;;5108509;28;19924;-71
2023/03/18 13:00:01;;;;;;;;;;;20.00;46.50;;;;;;5107761;28;20286;-72
2023/03/18 13:05:31;;;;;;;;;;;20.00;46.80;;;;;;5109215;27;19912;-72
2023/03/18 13:08:16;;;;;;;;;;;20.10;46.70;;;;;;5070958;28;20026;-68
2023/03/18 13:10:44;;;;;;;;;;;20.00;46.70;;;;;;5087687;28;19964;-74
2023/03/18 13:13:11;;;;;;;;;;;20.00;46.70;;;;;;5108881;28;20003;-74
2023/03/18 13:15:39;;;;;;;;;;;20.00;46.70;;;;;;5109460;28;19920;-73
2023/03/18 13:18:13;;;;;;;;;;;19.90;46.90;;;;;;5107758;28;19962;-69
2023/03/18 13:20:40;;;;;;;;;;;19.80;47.00;;;;;;5108375;28;19954;-71
2023/03/18 13:23:12;;;;;;;;;;;19.80;47.20;;;;;;5108067;28;19963;-72
2023/03/18 13:25:43;;;;;;;;;;;19.80;47.20;;;;;;5108771;28;19920;-71
2023/03/18 13:31:06;;;;;;;;;;;19.70;47.40;;;;;;5130006;27;20026;-72
2023/03/18 13:33:52;;;;;;;;;;;19.60;47.70;;;;;;5129826;27;20314;-75
2023/03/18 13:36:38;;;;;;;;;;;19.70;48.10;;;;;;5128853;28;19920;-71
2023/03/18 13:39:08;;;;;;;;;;;19.50;48.10;;;;;;5128942;28;20267;-71
2023/03/18 13:44:18;;;;;;;;;;;19.40;48.20;;;;;;5110144;27;19919;-69
2023/03/18 13:46:52;;;;;;;;;;;19.40;48.40;;;;;;5108609;28;19920;-68
2023/03/18 13:49:20;;;;;;;;;;;19.30;48.60;;;;;;5107862;28;19924;-69
2023/03/18 13:51:48;;;;;;;;;;;19.30;48.70;;;;;;5108600;28;20291;-68
2023/03/18 13:54:17;;;;;;;;;;;19.30;48.90;;;;;;5108040;28;19927;-70
2023/03/18 14:02:38;;;;;;;;;;;19.20;48.90;;;;;;5110163;27;19919;-69
2023/03/18 14:05:23;;;;;;;;;;;19.20;48.90;;;;;;5108128;28;19920;-70
2023/03/18 14:07:49;;;;;;;;;;;19.20;49.10;;;;;;5108919;28;19920;-68
2023/03/18 14:10:17;;;;;;;;;;;19.10;49.10;;;;;;5108918;28;20420;-69
2023/03/18 14:12:43;;;;;;;;;;;19.10;49.30;;;;;;5109021;28;20275;-70
2023/03/18 14:17:55;;;;;;;;;;;19.10;49.20;;;;;;5109596;27;19912;-70
2023/03/18 14:20:23;;;;;;;;;;;19.10;49.10;;;;;;5109101;28;20437;-65
2023/03/18 14:22:50;;;;;;;;;;;19.10;49.10;;;;;;5109119;28;19920;-74
2023/03/18 14:27:58;;;;;;;;;;;19.10;49.50;;;;;;5110287;27;19912;-74
2023/03/18 14:36:08;;;;;;;;;;;19.10;49.70;;;;;;5088844;28;19919;-66
2023/03/18 14:38:39;;;;;;;;;;;19.00;49.50;;;;;;5088058;28;19931;-68
2023/03/18 14:41:12;;;;;;;;;;;19.00;49.60;;;;;;5088648;28;19978;-75
2023/03/18 14:43:43;;;;;;;;;;;19.00;49.60;;;;;;5088245;28;19920;-73
2023/03/18 14:46:16;;;;;;;;;;;19.00;49.70;;;;;;5085702;28;20399;-72
2023/03/18 14:48:42;;;;;;;;;;;19.00;49.70;;;;;;5088217;28;19970;-72
2023/03/18 14:53:52;;;;;;;;;;;18.90;49.90;;;;;;5090250;28;20370;-72
2023/03/18 14:56:19;;;;;;;;;;;18.90;49.90;;;;;;5088872;28;20303;-72
2023/03/18 14:58:46;;;;;;;;;;;18.80;49.90;;;;;;5105423;28;19920;-71
2023/03/18 15:01:12;;;;;;;;;;;18.80;50.00;;;;;;5088706;28;20003;-72
2023/03/18 15:03:41;;;;;;;;;;;18.80;50.00;;;;;;5088831;28;20007;-72
2023/03/18 15:06:07;;;;;;;;;;;18.80;50.10;;;;;;5088317;28;19962;-72
2023/03/18 15:08:33;;;;;;;;;;;18.70;50.00;;;;;;5088637;28;20223;-73
2023/03/18 15:11:01;;;;;;;;;;;18.70;50.10;;;;;;5088478;28;19920;-72
2023/03/18 15:13:27;;;;;;;;;;;18.70;50.10;;;;;;5088184;28;20388;-72
2023/03/18 15:15:55;;;;;;;;;;;18.70;50.10;;;;;;5088132;28;20178;-72
2023/03/18 15:21:08;;;;;;;;;;;18.60;50.00;;;;;;5110093;27;19919;-73
2023/03/18 15:23:36;;;;;;;;;;;18.60;50.00;;;;;;5108956;28;19924;-72
2023/03/18 15:26:03;;;;;;;;;;;18.60;50.00;;;;;;5109131;28;19920;-72
2023/03/18 15:28:28;;;;;;;;;;;18.60;50.00;;;;;;5109128;28;19920;-72
2023/03/18 15:30:55;;;;;;;;;;;18.60;50.10;;;;;;5108767;28;19920;-72
2023/03/18 15:33:23;;;;;;;;;;;18.60;50.10;;;;;;5108709;28;19920;-73
2023/03/18 15:36:01;;;;;;;;;;;18.50;50.10;;;;;;5108268;28;20310;-72
2023/03/18 15:38:29;;;;;;;;;;;18.50;50.10;;;;;;5108477;28;19919;-73